Time;durP1;ratioP1;P1;durP2;ratioP2;P2;SDS_P1;SDS_P2;PMS_P1;PMS_P2;Temp;Humidity;BMP_temperature;BMP_pressure;BME280_temperature;BME280_humidity;BME280_pressure;Samples;Min_cycle;Max_cycle;Signal;HPM_P1;HPM_P2
2022/04/07 00:01:09;;;;;;;;;;;;;;;;;;4188863;28;849;-67
2022/04/07 00:03:29;;;;;;;;;;;;;;;;;;4188561;28;1138;-67
2022/04/07 00:05:51;;;;;;;;;;;;;;;;;;4188423;28;1210;-67
2022/04/07 00:08:11;;;;;;;;;;;;;;;;;;4188332;28;1979;-67
2022/04/07 00:10:32;;;;;;;;;;;;;;;;;;4188411;28;1004;-67
2022/04/07 00:12:52;;;;;;;;;;;;;;;;;;4188825;28;816;-67
2022/04/07 00:15:14;;;;;;;;;;;;;;;;;;4188530;28;1020;-67
2022/04/07 00:17:34;;;;;;;;;;;;;;;;;;4188564;28;913;-67
2022/04/07 00:19:55;;;;;;;;;;;;;;;;;;4188133;28;933;-67
2022/04/07 00:22:16;;;;;;;;;;;;;;;;;;4188317;28;1099;-67
2022/04/07 00:24:36;;;;;;;;;;;;;;;;;;4188447;28;834;-67
2022/04/07 00:26:57;;;;;;;;;;;;;;;;;;4187669;28;1266;-67
2022/04/07 00:29:18;;;;;;;;;;;;;;;;;;4173016;28;1910;-67
2022/04/07 00:31:42;;;;;;;;;;;;;;;;;;4188481;28;965;-67
2022/04/07 00:34:02;;;;;;;;;;;;;;;;;;4187531;28;1083;-67
2022/04/07 00:36:23;;;;;;;;;;;;;;;;;;4188211;28;1044;-66
2022/04/07 00:38:44;;;;;;;;;;;;;;;;;;4188136;28;871;-67
2022/04/07 00:41:05;;;;;;;;;;;;;;;;;;4187944;28;928;-67
2022/04/07 00:43:26;;;;;;;;;;;;;;;;;;4187283;28;1029;-67
2022/04/07 00:45:46;;;;;;;;;;;;;;;;;;4188199;28;815;-67
2022/04/07 00:48:07;;;;;;;;;;;;;;;;;;4186962;28;934;-67
2022/04/07 00:50:27;;;;;;;;;;;;;;;;;;4188095;28;1099;-66
2022/04/07 00:52:48;;;;;;;;;;;;;;;;;;4188107;28;974;-67
2022/04/07 00:55:09;;;;;;;;;;;;;;;;;;4187811;28;958;-66
2022/04/07 00:57:30;;;;;;;;;;;;;;;;;;4187710;28;1133;-66
2022/04/07 00:59:50;;;;;;;;;;;;;;;;;;4187775;28;966;-67
2022/04/07 01:02:29;;;;;;;;;;;;;;;;;;4181059;28;2209;-67
2022/04/07 01:04:50;;;;;;;;;;;;;;;;;;4170615;28;1063;-67
2022/04/07 01:07:11;;;;;;;;;;;;;;;;;;4182168;28;1321;-67
2022/04/07 01:09:32;;;;;;;;;;;;;;;;;;4187153;28;1905;-67
2022/04/07 01:11:53;;;;;;;;;;;;;;;;;;4186985;28;1093;-68
2022/04/07 01:14:13;;;;;;;;;;;;;;;;;;4187030;28;1022;-67
2022/04/07 01:16:34;;;;;;;;;;;;;;;;;;4187040;28;1257;-68
2022/04/07 01:18:56;;;;;;;;;;;;;;;;;;4186931;28;1337;-68
2022/04/07 01:21:16;;;;;;;;;;;;;;;;;;4186656;28;1391;-66
2022/04/07 01:23:38;;;;;;;;;;;;;;;;;;4187002;28;1034;-67
2022/04/07 01:25:58;;;;;;;;;;;;;;;;;;4187093;28;1002;-67
2022/04/07 01:28:19;;;;;;;;;;;;;;;;;;4186082;28;1169;-67
2022/04/07 01:30:40;;;;;;;;;;;;;;;;;;4186996;28;1040;-67
2022/04/07 01:33:00;;;;;;;;;;;;;;;;;;4186842;28;1203;-67
2022/04/07 01:35:22;;;;;;;;;;;;;;;;;;4185915;28;980;-67
2022/04/07 01:37:42;;;;;;;;;;;;;;;;;;4187834;28;829;-66
2022/04/07 01:40:04;;;;;;;;;;;;;;;;;;4187392;28;1105;-67
2022/04/07 01:42:25;;;;;;;;;;;;;;;;;;4187353;28;979;-67
2022/04/07 01:44:46;;;;;;;;;;;;;;;;;;4187844;28;1079;-66
2022/04/07 01:47:06;;;;;;;;;;;;;;;;;;4187371;28;1203;-66
2022/04/07 01:49:27;;;;;;;;;;;;;;;;;;4186766;28;1979;-67
2022/04/07 01:51:48;;;;;;;;;;;;;;;;;;4186893;28;1134;-66
2022/04/07 01:54:11;;;;;;;;;;;;;;;;;;4185871;28;1189;-67
2022/04/07 01:56:32;;;;;;;;;;;;;;;;;;4185817;28;1142;-67
2022/04/07 01:58:53;;;;;;;;;;;;;;;;;;4186830;28;1007;-67
2022/04/07 02:01:13;;;;;;;;;;;;;;;;;;4187257;28;852;-67
2022/04/07 02:03:34;;;;;;;;;;;;;;;;;;4185727;28;1070;-66
2022/04/07 02:05:55;;;;;;;;;;;;;;;;;;4186731;28;1084;-67
2022/04/07 02:08:16;;;;;;;;;;;;;;;;;;4187256;28;844;-67
2022/04/07 02:10:36;;;;;;;;;;;;;;;;;;4186802;28;1972;-67
2022/04/07 02:12:57;;;;;;;;;;;;;;;;;;4186764;28;919;-67
2022/04/07 02:15:18;;;;;;;;;;;;;;;;;;4187111;28;802;-67
2022/04/07 02:17:38;;;;;;;;;;;;;;;;;;4187100;28;908;-67
2022/04/07 02:19:59;;;;;;;;;;;;;;;;;;4186700;28;970;-67
2022/04/07 02:22:20;;;;;;;;;;;;;;;;;;4187298;28;720;-66
2022/04/07 02:24:41;;;;;;;;;;;;;;;;;;4186837;28;1029;-67
2022/04/07 02:27:02;;;;;;;;;;;;;;;;;;4186831;28;887;-66
2022/04/07 02:29:23;;;;;;;;;;;;;;;;;;4186568;28;1910;-67
2022/04/07 02:31:43;;;;;;;;;;;;;;;;;;4186818;28;846;-67
2022/04/07 02:34:04;;;;;;;;;;;;;;;;;;4186275;28;1563;-67
2022/04/07 02:36:25;;;;;;;;;;;;;;;;;;4186385;28;1244;-66
2022/04/07 02:38:46;;;;;;;;;;;;;;;;;;4186358;28;1012;-67
2022/04/07 02:41:06;;;;;;;;;;;;;;;;;;4186159;28;1099;-67
2022/04/07 02:43:28;;;;;;;;;;;;;;;;;;4186351;28;926;-66
2022/04/07 02:45:49;;;;;;;;;;;;;;;;;;4186045;28;974;-67
2022/04/07 02:48:09;;;;;;;;;;;;;;;;;;4185430;28;1077;-66
2022/04/07 02:50:30;;;;;;;;;;;;;;;;;;4186381;28;1956;-67
2022/04/07 02:52:51;;;;;;;;;;;;;;;;;;4185430;28;849;-67
2022/04/07 02:55:11;;;;;;;;;;;;;;;;;;4186043;28;1751;-66
2022/04/07 02:57:32;;;;;;;;;;;;;;;;;;4185912;28;928;-67
2022/04/07 02:59:53;;;;;;;;;;;;;;;;;;4186062;28;1368;-67
2022/04/07 03:02:13;;;;;;;;;;;;;;;;;;4185249;28;1314;-67
2022/04/07 03:04:34;;;;;;;;;;;;;;;;;;4186325;28;1408;-67
2022/04/07 03:06:55;;;;;;;;;;;;;;;;;;4186173;28;996;-67
2022/04/07 03:09:16;;;;;;;;;;;;;;;;;;4186149;28;1991;-67
2022/04/07 03:11:37;;;;;;;;;;;;;;;;;;4186630;28;855;-67
2022/04/07 03:13:57;;;;;;;;;;;;;;;;;;4186304;28;959;-67
2022/04/07 03:16:18;;;;;;;;;;;;;;;;;;4186574;28;826;-67
2022/04/07 03:18:39;;;;;;;;;;;;;;;;;;4186547;28;826;-67
2022/04/07 03:20:59;;;;;;;;;;;;;;;;;;4186280;28;966;-67
2022/04/07 03:23:20;;;;;;;;;;;;;;;;;;4186482;28;941;-67
2022/04/07 03:25:41;;;;;;;;;;;;;;;;;;4186306;28;1122;-67
2022/04/07 03:28:01;;;;;;;;;;;;;;;;;;4186454;28;958;-67
2022/04/07 03:30:22;;;;;;;;;;;;;;;;;;4186189;28;1906;-67
2022/04/07 03:32:43;;;;;;;;;;;;;;;;;;4186315;28;1174;-67
2022/04/07 03:35:04;;;;;;;;;;;;;;;;;;4186542;28;1225;-67
2022/04/07 03:37:25;;;;;;;;;;;;;;;;;;4185310;28;1097;-67
2022/04/07 03:39:45;;;;;;;;;;;;;;;;;;4186218;28;883;-67
2022/04/07 03:42:06;;;;;;;;;;;;;;;;;;4186131;28;1282;-67
2022/04/07 03:44:26;;;;;;;;;;;;;;;;;;4185960;28;1023;-67
2022/04/07 03:46:47;;;;;;;;;;;;;;;;;;4185997;28;1045;-67
2022/04/07 03:49:08;;;;;;;;;;;;;;;;;;4186096;28;951;-67
2022/04/07 03:51:29;;;;;;;;;;;;;;;;;;4186023;28;932;-67
2022/04/07 03:53:50;;;;;;;;;;;;;;;;;;4186746;28;1245;-67
2022/04/07 03:56:10;;;;;;;;;;;;;;;;;;4188666;28;1036;-67
2022/04/07 03:58:31;;;;;;;;;;;;;;;;;;4188610;28;1138;-67
2022/04/07 04:00:52;;;;;;;;;;;;;;;;;;4188615;28;1231;-67
2022/04/07 04:03:13;;;;;;;;;;;;;;;;;;4188358;28;970;-66
2022/04/07 04:05:33;;;;;;;;;;;;;;;;;;4188760;28;816;-67
2022/04/07 04:07:56;;;;;;;;;;;;;;;;;;4188700;28;833;-67
2022/04/07 04:10:17;;;;;;;;;;;;;;;;;;4187415;28;1914;-67
2022/04/07 04:12:37;;;;;;;;;;;;;;;;;;4188592;28;951;-67
2022/04/07 04:14:58;;;;;;;;;;;;;;;;;;4188508;28;1003;-67
2022/04/07 04:17:19;;;;;;;;;;;;;;;;;;4188617;28;1018;-67
2022/04/07 04:19:40;;;;;;;;;;;;;;;;;;4188364;28;1057;-67
2022/04/07 04:22:00;;;;;;;;;;;;;;;;;;4188737;28;1032;-67
2022/04/07 04:24:21;;;;;;;;;;;;;;;;;;4188561;28;857;-67
2022/04/07 04:26:41;;;;;;;;;;;;;;;;;;4188563;28;852;-67
2022/04/07 04:29:02;;;;;;;;;;;;;;;;;;4187457;28;861;-67
2022/04/07 04:31:24;;;;;;;;;;;;;;;;;;4187937;28;1910;-68
2022/04/07 04:33:45;;;;;;;;;;;;;;;;;;4188314;28;1077;-67
2022/04/07 04:36:05;;;;;;;;;;;;;;;;;;4188371;28;765;-68
2022/04/07 04:38:26;;;;;;;;;;;;;;;;;;4188415;28;924;-67
2022/04/07 04:40:46;;;;;;;;;;;;;;;;;;4188251;28;842;-67
2022/04/07 04:43:07;;;;;;;;;;;;;;;;;;4188323;28;1011;-67
2022/04/07 04:45:28;;;;;;;;;;;;;;;;;;4188266;28;1125;-68
2022/04/07 04:47:52;;;;;;;;;;;;;;;;;;4188086;28;993;-67
2022/04/07 04:50:13;;;;;;;;;;;;;;;;;;4187882;28;1981;-67
2022/04/07 04:52:34;;;;;;;;;;;;;;;;;;4187912;28;961;-67
2022/04/07 04:54:54;;;;;;;;;;;;;;;;;;4188062;28;993;-67
2022/04/07 04:57:15;;;;;;;;;;;;;;;;;;4188160;28;885;-67
2022/04/07 04:59:35;;;;;;;;;;;;;;;;;;4188103;28;951;-67
2022/04/07 05:01:56;;;;;;;;;;;;;;;;;;4188126;28;904;-67
2022/04/07 05:04:17;;;;;;;;;;;;;;;;;;4187513;28;1219;-67
2022/04/07 05:06:37;;;;;;;;;;;;;;;;;;4187975;28;1005;-67
2022/04/07 05:08:58;;;;;;;;;;;;;;;;;;4187756;28;1460;-67
2022/04/07 05:11:19;;;;;;;;;;;;;;;;;;4187710;28;1910;-67
2022/04/07 05:13:40;;;;;;;;;;;;;;;;;;4187926;28;824;-67
2022/04/07 05:16:00;;;;;;;;;;;;;;;;;;4187779;28;1179;-67
2022/04/07 05:18:21;;;;;;;;;;;;;;;;;;4186013;28;1151;-67
2022/04/07 05:20:42;;;;;;;;;;;;;;;;;;4187770;28;1006;-67
2022/04/07 05:23:02;;;;;;;;;;;;;;;;;;4187543;28;1166;-67
2022/04/07 05:25:23;;;;;;;;;;;;;;;;;;4187423;28;1166;-67
2022/04/07 05:27:45;;;;;;;;;;;;;;;;;;4187594;28;1131;-67
2022/04/07 05:30:05;;;;;;;;;;;;;;;;;;4187402;28;1902;-67
2022/04/07 05:32:26;;;;;;;;;;;;;;;;;;4187538;28;1093;-67
2022/04/07 05:34:46;;;;;;;;;;;;;;;;;;4187539;28;981;-67
2022/04/07 05:37:07;;;;;;;;;;;;;;;;;;4187852;28;830;-67
2022/04/07 05:39:28;;;;;;;;;;;;;;;;;;4187615;28;980;-68
2022/04/07 05:41:48;;;;;;;;;;;;;;;;;;4187489;28;1220;-67
2022/04/07 05:44:09;;;;;;;;;;;;;;;;;;4187475;28;901;-67
2022/04/07 05:46:30;;;;;;;;;;;;;;;;;;4187771;28;1014;-67
2022/04/07 05:48:51;;;;;;;;;;;;;;;;;;4187530;28;1049;-67
2022/04/07 05:51:13;;;;;;;;;;;;;;;;;;4187286;28;1909;-67
2022/04/07 05:53:34;;;;;;;;;;;;;;;;;;4187411;28;1222;-68
2022/04/07 05:55:55;;;;;;;;;;;;;;;;;;4187239;28;973;-67
2022/04/07 05:58:16;;;;;;;;;;;;;;;;;;4187217;28;998;-67
2022/04/07 06:00:37;;;;;;;;;;;;;;;;;;4187389;28;1213;-68
2022/04/07 06:02:58;;;;;;;;;;;;;;;;;;4187495;28;979;-67
2022/04/07 06:05:19;;;;;;;;;;;;;;;;;;4187385;28;1095;-67
2022/04/07 06:07:40;;;;;;;;;;;;;;;;;;4187395;28;841;-67
2022/04/07 06:10:01;;;;;;;;;;;;;;;;;;4187080;28;1040;-67
2022/04/07 06:12:22;;;;;;;;;;;;;;;;;;4186984;28;923;-67
2022/04/07 06:14:43;;;;;;;;;;;;;;;;;;4187240;28;1228;-67
2022/04/07 06:17:03;;;;;;;;;;;;;;;;;;4186448;28;968;-67
2022/04/07 06:19:24;;;;;;;;;;;;;;;;;;4186984;28;1208;-67
2022/04/07 06:21:45;;;;;;;;;;;;;;;;;;4187045;28;921;-67
2022/04/07 06:24:06;;;;;;;;;;;;;;;;;;4187081;28;920;-67
2022/04/07 06:26:26;;;;;;;;;;;;;;;;;;4187075;28;937;-68
2022/04/07 06:28:47;;;;;;;;;;;;;;;;;;4187158;28;904;-67
2022/04/07 06:31:07;;;;;;;;;;;;;;;;;;4186658;28;1917;-67
2022/04/07 06:33:28;;;;;;;;;;;;;;;;;;4186646;28;1056;-67
2022/04/07 06:35:50;;;;;;;;;;;;;;;;;;4186785;28;1364;-67
2022/04/07 06:38:11;;;;;;;;;;;;;;;;;;4186823;28;1074;-67
2022/04/07 06:40:31;;;;;;;;;;;;;;;;;;4186698;28;1088;-67
2022/04/07 06:42:52;;;;;;;;;;;;;;;;;;4186884;28;1134;-67
2022/04/07 06:45:13;;;;;;;;;;;;;;;;;;4186664;28;975;-67
2022/04/07 06:47:34;;;;;;;;;;;;;;;;;;4186759;28;933;-68
2022/04/07 06:49:55;;;;;;;;;;;;;;;;;;4186816;28;979;-67
2022/04/07 06:52:15;;;;;;;;;;;;;;;;;;4186405;28;1902;-67
2022/04/07 06:54:36;;;;;;;;;;;;;;;;;;4186752;28;926;-68
2022/04/07 06:56:57;;;;;;;;;;;;;;;;;;4186558;28;1417;-67
2022/04/07 06:59:17;;;;;;;;;;;;;;;;;;4186525;28;892;-68
2022/04/07 07:01:38;;;;;;;;;;;;;;;;;;4186311;28;979;-67
2022/04/07 07:03:59;;;;;;;;;;;;;;;;;;4186502;28;1001;-67
2022/04/07 07:06:19;;;;;;;;;;;;;;;;;;4184855;28;1041;-67
2022/04/07 07:08:42;;;;;;;;;;;;;;;;;;4186412;28;942;-67
2022/04/07 07:11:03;;;;;;;;;;;;;;;;;;4186191;28;1988;-67
2022/04/07 07:13:24;;;;;;;;;;;;;;;;;;4173997;28;2045;-69
2022/04/07 07:15:44;;;;;;;;;;;;;;;;;;4169536;28;945;-67
2022/04/07 07:18:05;;;;;;;;;;;;;;;;;;4175953;28;1452;-67
2022/04/07 07:20:25;;;;;;;;;;;;;;;;;;4175206;28;1718;-68
2022/04/07 07:22:46;;;;;;;;;;;;;;;;;;4170147;28;1036;-67
2022/04/07 07:25:07;;;;;;;;;;;;;;;;;;4169780;28;1156;-67
2022/04/07 07:27:27;;;;;;;;;;;;;;;;;;4181603;28;1077;-68
2022/04/07 07:29:48;;;;;;;;;;;;;;;;;;4188541;28;2112;-67
2022/04/07 07:32:08;;;;;;;;;;;;;;;;;;4170490;28;1948;-67
2022/04/07 07:34:29;;;;;;;;;;;;;;;;;;4187884;28;1251;-67
2022/04/07 07:36:50;;;;;;;;;;;;;;;;;;4188010;28;1013;-67
2022/04/07 07:39:10;;;;;;;;;;;;;;;;;;4188056;28;1002;-67
2022/04/07 07:41:31;;;;;;;;;;;;;;;;;;4188739;28;1194;-67
2022/04/07 07:43:52;;;;;;;;;;;;;;;;;;4188892;28;986;-68
2022/04/07 07:46:13;;;;;;;;;;;;;;;;;;4187722;28;827;-68
2022/04/07 07:48:33;;;;;;;;;;;;;;;;;;4188964;28;905;-67
2022/04/07 07:50:54;;;;;;;;;;;;;;;;;;4188710;28;1150;-68
2022/04/07 07:53:16;;;;;;;;;;;;;;;;;;4188760;28;802;-67
2022/04/07 07:55:37;;;;;;;;;;;;;;;;;;4188508;28;987;-67
2022/04/07 07:57:58;;;;;;;;;;;;;;;;;;4188422;28;1131;-68
2022/04/07 08:00:19;;;;;;;;;;;;;;;;;;4188660;28;979;-67
2022/04/07 08:02:39;;;;;;;;;;;;;;;;;;4188550;28;1074;-67
2022/04/07 08:05:00;;;;;;;;;;;;;;;;;;4188466;28;992;-67
2022/04/07 08:07:22;;;;;;;;;;;;;;;;;;4188507;28;1395;-68
2022/04/07 08:09:42;;;;;;;;;;;;;;;;;;4188107;28;1258;-68
2022/04/07 08:12:03;;;;;;;;;;;;;;;;;;4187816;28;1984;-67
2022/04/07 08:14:24;;;;;;;;;;;;;;;;;;4188350;28;998;-68
2022/04/07 08:16:44;;;;;;;;;;;;;;;;;;4187179;28;868;-68
2022/04/07 08:19:05;;;;;;;;;;;;;;;;;;4188268;28;810;-67
2022/04/07 08:21:25;;;;;;;;;;;;;;;;;;4188513;28;1095;-67
2022/04/07 08:23:46;;;;;;;;;;;;;;;;;;4188288;28;1006;-67
2022/04/07 08:26:06;;;;;;;;;;;;;;;;;;4181799;28;1107;-67
2022/04/07 08:28:27;;;;;;;;;;;;;;;;;;4188373;28;1340;-66
2022/04/07 08:30:48;;;;;;;;;;;;;;;;;;4186492;28;1528;-67
2022/04/07 08:33:09;;;;;;;;;;;;;;;;;;4187775;28;2009;-67
2022/04/07 08:35:29;;;;;;;;;;;;;;;;;;4187694;28;1042;-67
2022/04/07 08:37:50;;;;;;;;;;;;;;;;;;4187724;28;1145;-67
2022/04/07 08:40:11;;;;;;;;;;;;;;;;;;4187145;28;877;-67
2022/04/07 08:42:31;;;;;;;;;;;;;;;;;;4186654;28;1209;-67
2022/04/07 08:44:52;;;;;;;;;;;;;;;;;;4187907;28;1083;-68
2022/04/07 08:47:13;;;;;;;;;;;;;;;;;;4187801;28;1212;-68
2022/04/07 08:49:34;;;;;;;;;;;;;;;;;;4187715;28;1062;-67
2022/04/07 08:51:54;;;;;;;;;;;;;;;;;;4187389;28;2328;-67
2022/04/07 08:54:15;;;;;;;;;;;;;;;;;;4187969;28;859;-66
2022/04/07 08:56:36;;;;;;;;;;;;;;;;;;4187379;28;1205;-67
2022/04/07 08:58:57;;;;;;;;;;;;;;;;;;4185572;28;1868;-67
2022/04/07 09:01:18;;;;;;;;;;;;;;;;;;4187927;28;1026;-67
2022/04/07 09:03:39;;;;;;;;;;;;;;;;;;4187665;28;958;-67
2022/04/07 09:05:59;;;;;;;;;;;;;;;;;;4187333;28;957;-67
2022/04/07 09:08:20;;;;;;;;;;;;;;;;;;4187075;28;1333;-67
2022/04/07 09:10:41;;;;;;;;;;;;;;;;;;4184658;28;1696;-68
2022/04/07 09:13:02;;;;;;;;;;;;;;;;;;4173091;28;2004;-67
2022/04/07 09:15:23;;;;;;;;;;;;;;;;;;4180883;28;1157;-67
2022/04/07 09:17:43;;;;;;;;;;;;;;;;;;4187385;28;1210;-67
2022/04/07 09:20:04;;;;;;;;;;;;;;;;;;4187443;28;1071;-67
2022/04/07 09:22:25;;;;;;;;;;;;;;;;;;4184075;28;1895;-67
2022/04/07 09:24:46;;;;;;;;;;;;;;;;;;4167975;28;2387;-67
2022/04/07 09:27:07;;;;;;;;;;;;;;;;;;4176598;28;2442;-67
2022/04/07 09:29:28;;;;;;;;;;;;;;;;;;4174197;28;1523;-67
2022/04/07 09:31:48;;;;;;;;;;;;;;;;;;4186966;28;1930;-68
2022/04/07 09:34:09;;;;;;;;;;;;;;;;;;4187355;28;1068;-67
2022/04/07 09:36:30;;;;;;;;;;;;;;;;;;4183663;28;2385;-67
2022/04/07 09:38:51;;;;;;;;;;;;;;;;;;4176887;28;1769;-67
2022/04/07 09:41:11;;;;;;;;;;;;;;;;;;4170627;28;870;-67
2022/04/07 09:43:32;;;;;;;;;;;;;;;;;;4169562;28;1121;-67
2022/04/07 09:45:53;;;;;;;;;;;;;;;;;;4170181;28;934;-67
2022/04/07 09:48:14;;;;;;;;;;;;;;;;;;4169632;28;1019;-67
2022/04/07 09:50:36;;;;;;;;;;;;;;;;;;4169584;28;985;-65
2022/04/07 09:52:57;;;;;;;;;;;;;;;;;;4167291;28;1910;-67
2022/04/07 09:55:17;;;;;;;;;;;;;;;;;;4170473;28;961;-67
2022/04/07 09:57:38;;;;;;;;;;;;;;;;;;4170898;28;1277;-67
2022/04/07 09:59:59;;;;;;;;;;;;;;;;;;4171000;28;847;-67
2022/04/07 10:02:20;;;;;;;;;;;;;;;;;;4171023;28;1240;-67
2022/04/07 10:04:41;;;;;;;;;;;;;;;;;;4170674;28;1215;-67
2022/04/07 10:07:01;;;;;;;;;;;;;;;;;;4170765;28;1098;-67
2022/04/07 10:09:22;;;;;;;;;;;;;;;;;;4170319;28;935;-67
2022/04/07 10:11:43;;;;;;;;;;;;;;;;;;4170805;28;921;-67
2022/04/07 10:14:03;;;;;;;;;;;;;;;;;;4170640;28;966;-67
2022/04/07 10:16:25;;;;;;;;;;;;;;;;;;4170562;28;935;-67
2022/04/07 10:18:46;;;;;;;;;;;;;;;;;;4170734;28;1045;-67
2022/04/07 10:21:07;;;;;;;;;;;;;;;;;;4170277;28;1009;-67
2022/04/07 10:23:27;;;;;;;;;;;;;;;;;;4170560;28;1297;-67
2022/04/07 10:25:49;;;;;;;;;;;;;;;;;;4170501;28;975;-67
2022/04/07 10:28:10;;;;;;;;;;;;;;;;;;4170368;28;1210;-67
2022/04/07 10:30:32;;;;;;;;;;;;;;;;;;4170728;28;1058;-67
2022/04/07 10:32:55;;;;;;;;;;;;;;;;;;4170730;28;1913;-67
2022/04/07 10:35:16;;;;;;;;;;;;;;;;;;4170323;28;1035;-67
2022/04/07 10:37:36;;;;;;;;;;;;;;;;;;4170197;28;835;-67
2022/04/07 10:39:57;;;;;;;;;;;;;;;;;;4170606;28;1001;-67
2022/04/07 10:42:17;;;;;;;;;;;;;;;;;;4169626;28;929;-67
2022/04/07 10:44:38;;;;;;;;;;;;;;;;;;4170461;28;1037;-67
2022/04/07 10:46:59;;;;;;;;;;;;;;;;;;4170054;28;1067;-67
2022/04/07 10:49:20;;;;;;;;;;;;;;;;;;4170508;28;990;-66
2022/04/07 10:51:40;;;;;;;;;;;;;;;;;;4169999;28;1233;-67
2022/04/07 10:54:01;;;;;;;;;;;;;;;;;;4169887;28;1987;-67
2022/04/07 10:56:21;;;;;;;;;;;;;;;;;;4170130;28;1155;-67
2022/04/07 10:58:42;;;;;;;;;;;;;;;;;;4170406;28;877;-67
2022/04/07 11:01:03;;;;;;;;;;;;;;;;;;4170139;28;968;-67
2022/04/07 11:03:23;;;;;;;;;;;;;;;;;;4171858;28;898;-67
2022/04/07 11:05:44;;;;;;;;;;;;;;;;;;4172917;28;868;-67
2022/04/07 11:08:05;;;;;;;;;;;;;;;;;;4172922;28;999;-67
2022/04/07 11:10:25;;;;;;;;;;;;;;;;;;4172935;28;991;-67
2022/04/07 11:12:46;;;;;;;;;;;;;;;;;;4171893;28;1914;-67
2022/04/07 11:15:07;;;;;;;;;;;;;;;;;;4173343;28;936;-67
2022/04/07 11:17:28;;;;;;;;;;;;;;;;;;4172408;28;1182;-66
2022/04/07 11:19:50;;;;;;;;;;;;;;;;;;4172668;28;1198;-66
2022/04/07 11:22:12;;;;;;;;;;;;;;;;;;4172778;28;818;-67
2022/04/07 11:24:34;;;;;;;;;;;;;;;;;;4171609;28;1034;-66
2022/04/07 11:26:54;;;;;;;;;;;;;;;;;;4172700;28;949;-67
2022/04/07 11:29:16;;;;;;;;;;;;;;;;;;4172842;28;1230;-64
2022/04/07 11:31:36;;;;;;;;;;;;;;;;;;4172826;28;991;-67
2022/04/07 11:33:57;;;;;;;;;;;;;;;;;;4172287;28;1917;-66
2022/04/07 11:36:18;;;;;;;;;;;;;;;;;;4172368;28;1005;-67
2022/04/07 11:38:39;;;;;;;;;;;;;;;;;;4172695;28;942;-66
2022/04/07 11:40:59;;;;;;;;;;;;;;;;;;4172345;28;990;-66
2022/04/07 11:43:20;;;;;;;;;;;;;;;;;;4172264;28;959;-66
2022/04/07 11:45:41;;;;;;;;;;;;;;;;;;4172504;28;868;-66
2022/04/07 11:48:02;;;;;;;;;;;;;;;;;;4172368;28;1184;-66
2022/04/07 11:50:23;;;;;;;;;;;;;;;;;;4172156;28;1146;-63
2022/04/07 11:52:43;;;;;;;;;;;;;;;;;;4172237;28;1906;-66
2022/04/07 11:55:04;;;;;;;;;;;;;;;;;;4172309;28;1034;-66
2022/04/07 11:57:25;;;;;;;;;;;;;;;;;;4172078;28;1203;-66
2022/04/07 11:59:46;;;;;;;;;;;;;;;;;;4172087;28;1181;-66
2022/04/07 12:02:07;;;;;;;;;;;;;;;;;;4172110;28;1191;-66
2022/04/07 12:04:28;;;;;;;;;;;;;;;;;;4172324;28;1017;-66
2022/04/07 12:06:49;;;;;;;;;;;;;;;;;;4172383;28;981;-66
2022/04/07 12:09:11;;;;;;;;;;;;;;;;;;4172383;28;859;-71
2022/04/07 12:11:31;;;;;;;;;;;;;;;;;;4172194;28;1013;-71
2022/04/07 12:13:52;;;;;;;;;;;;;;;;;;4171446;28;1911;-71
2022/04/07 12:16:12;;;;;;;;;;;;;;;;;;4172245;28;952;-72
2022/04/07 12:18:34;;;;;;;;;;;;;;;;;;4172096;28;884;-72
2022/04/07 12:20:55;;;;;;;;;;;;;;;;;;4172422;28;887;-71
2022/04/07 12:23:15;;;;;;;;;;;;;;;;;;4172065;28;988;-71
2022/04/07 12:25:36;;;;;;;;;;;;;;;;;;4171931;28;1170;-71
2022/04/07 12:27:59;;;;;;;;;;;;;;;;;;4172035;28;978;-71
2022/04/07 12:30:19;;;;;;;;;;;;;;;;;;4171297;28;968;-71
2022/04/07 12:32:40;;;;;;;;;;;;;;;;;;4171245;28;1062;-71
2022/04/07 12:35:01;;;;;;;;;;;;;;;;;;4172060;28;845;-72
2022/04/07 12:37:21;;;;;;;;;;;;;;;;;;4172216;28;948;-72
2022/04/07 12:39:44;;;;;;;;;;;;;;;;;;4171396;28;1102;-72
2022/04/07 12:42:04;;;;;;;;;;;;;;;;;;4171481;28;1136;-71
2022/04/07 12:44:26;;;;;;;;;;;;;;;;;;4172115;28;910;-71
2022/04/07 12:46:47;;;;;;;;;;;;;;;;;;4171663;28;1009;-72
2022/04/07 12:49:08;;;;;;;;;;;;;;;;;;4172066;28;824;-71
2022/04/07 12:51:28;;;;;;;;;;;;;;;;;;4172079;28;877;-72
2022/04/07 12:53:49;;;;;;;;;;;;;;;;;;4171535;28;1905;-72
2022/04/07 12:56:10;;;;;;;;;;;;;;;;;;4171680;28;953;-71
2022/04/07 12:58:31;;;;;;;;;;;;;;;;;;4171758;28;1012;-71
2022/04/07 13:00:51;;;;;;;;;;;;;;;;;;4171498;28;1090;-71
2022/04/07 13:03:12;;;;;;;;;;;;;;;;;;4171860;28;834;-72
2022/04/07 13:05:33;;;;;;;;;;;;;;;;;;4170328;28;1023;-71
2022/04/07 13:07:55;;;;;;;;;;;;;;;;;;4171009;28;1103;-71
2022/04/07 13:10:16;;;;;;;;;;;;;;;;;;4171423;28;978;-71
2022/04/07 13:12:38;;;;;;;;;;;;;;;;;;4171706;28;821;-71
2022/04/07 13:14:59;;;;;;;;;;;;;;;;;;4171656;28;822;-71
2022/04/07 13:17:20;;;;;;;;;;;;;;;;;;4171614;28;967;-72
2022/04/07 13:19:41;;;;;;;;;;;;;;;;;;4171692;28;843;-72
2022/04/07 13:22:02;;;;;;;;;;;;;;;;;;4171827;28;1806;-72
2022/04/07 13:24:23;;;;;;;;;;;;;;;;;;4187985;28;1057;-72
2022/04/07 13:26:44;;;;;;;;;;;;;;;;;;4187723;28;935;-72
2022/04/07 13:29:05;;;;;;;;;;;;;;;;;;4187997;28;1098;-71
2022/04/07 13:31:25;;;;;;;;;;;;;;;;;;4187853;28;762;-69
2022/04/07 13:33:46;;;;;;;;;;;;;;;;;;4187893;28;1909;-71
2022/04/07 13:36:07;;;;;;;;;;;;;;;;;;4187699;28;1331;-72
2022/04/07 13:38:35;;;;;;;;;;;;;;;;;;4187287;28;905;-71
2022/04/07 13:41:04;;;;;;;;;;;;;;;;;;4187600;28;991;-71
2022/04/07 13:43:25;;;;;;;;;;;;;;;;;;4187960;28;1088;-71
2022/04/07 13:45:46;;;;;;;;;;;;;;;;;;4186131;28;1342;-69
2022/04/07 13:48:06;;;;;;;;;;;;;;;;;;4187801;28;1059;-72
2022/04/07 13:50:27;;;;;;;;;;;;;;;;;;4187399;28;995;-72
2022/04/07 13:52:48;;;;;;;;;;;;;;;;;;4187628;28;810;-71
2022/04/07 13:55:08;;;;;;;;;;;;;;;;;;4186659;28;1910;-72
2022/04/07 13:57:29;;;;;;;;;;;;;;;;;;4187231;28;917;-72
2022/04/07 13:59:50;;;;;;;;;;;;;;;;;;4187365;28;1051;-72
2022/04/07 14:02:10;;;;;;;;;;;;;;;;;;4187424;28;909;-71
2022/04/07 14:04:31;;;;;;;;;;;;;;;;;;4187207;28;1408;-71
2022/04/07 14:06:52;;;;;;;;;;;;;;;;;;4187052;28;970;-72
2022/04/07 14:09:12;;;;;;;;;;;;;;;;;;4187529;28;845;-71
2022/04/07 14:11:34;;;;;;;;;;;;;;;;;;4187313;28;996;-72
2022/04/07 14:13:54;;;;;;;;;;;;;;;;;;4187068;28;1985;-71
2022/04/07 14:16:16;;;;;;;;;;;;;;;;;;4187160;28;815;-72
2022/04/07 14:18:36;;;;;;;;;;;;;;;;;;4187282;28;1012;-73
2022/04/07 14:20:57;;;;;;;;;;;;;;;;;;4186662;28;1828;-72
2022/04/07 14:23:18;;;;;;;;;;;;;;;;;;4186744;28;965;-71
2022/04/07 14:25:38;;;;;;;;;;;;;;;;;;4187320;28;1039;-72
2022/04/07 14:27:59;;;;;;;;;;;;;;;;;;4187203;28;878;-71
2022/04/07 14:30:19;;;;;;;;;;;;;;;;;;4186988;28;996;-72
2022/04/07 14:32:44;;;;;;;;;;;;;;;;;;4186735;28;1289;-71
2022/04/07 14:35:05;;;;;;;;;;;;;;;;;;4186916;28;1898;-71
2022/04/07 14:37:25;;;;;;;;;;;;;;;;;;4186270;28;1000;-71
2022/04/07 14:39:46;;;;;;;;;;;;;;;;;;4186970;28;1095;-71
2022/04/07 14:42:07;;;;;;;;;;;;;;;;;;4187002;28;874;-71
2022/04/07 14:44:27;;;;;;;;;;;;;;;;;;4186865;28;867;-71
2022/04/07 14:46:48;;;;;;;;;;;;;;;;;;4186975;28;805;-72
2022/04/07 14:49:08;;;;;;;;;;;;;;;;;;4186709;28;883;-72
2022/04/07 14:51:32;;;;;;;;;;;;;;;;;;4186726;28;892;-71
2022/04/07 14:53:52;;;;;;;;;;;;;;;;;;4186603;28;1902;-72
2022/04/07 14:56:13;;;;;;;;;;;;;;;;;;4186522;28;822;-72
2022/04/07 14:58:34;;;;;;;;;;;;;;;;;;4186988;28;997;-72
2022/04/07 15:00:54;;;;;;;;;;;;;;;;;;4186363;28;1156;-72
2022/04/07 15:03:15;;;;;;;;;;;;;;;;;;4178606;28;1541;-72
2022/04/07 15:05:36;;;;;;;;;;;;;;;;;;4179354;28;1470;-72
2022/04/07 15:07:59;;;;;;;;;;;;;;;;;;4184334;28;1659;-72
2022/04/07 15:10:19;;;;;;;;;;;;;;;;;;4184643;28;841;-72
2022/04/07 15:12:40;;;;;;;;;;;;;;;;;;4184358;28;1162;-72
2022/04/07 15:15:01;;;;;;;;;;;;;;;;;;4184578;28;1914;-72
2022/04/07 15:17:23;;;;;;;;;;;;;;;;;;4184665;28;908;-71
2022/04/07 15:19:44;;;;;;;;;;;;;;;;;;4184416;28;905;-71
2022/04/07 15:22:05;;;;;;;;;;;;;;;;;;4184517;28;926;-72
2022/04/07 15:24:26;;;;;;;;;;;;;;;;;;4184283;28;1407;-71
2022/04/07 15:26:46;;;;;;;;;;;;;;;;;;4184571;28;977;-71
2022/04/07 15:29:07;;;;;;;;;;;;;;;;;;4184592;28;1072;-72
2022/04/07 15:31:28;;;;;;;;;;;;;;;;;;4184640;28;881;-72
2022/04/07 15:33:49;;;;;;;;;;;;;;;;;;4184279;28;1300;-71
2022/04/07 15:36:10;;;;;;;;;;;;;;;;;;4184206;28;1202;-71
2022/04/07 15:38:31;;;;;;;;;;;;;;;;;;4184453;28;1021;-71
2022/04/07 15:40:51;;;;;;;;;;;;;;;;;;4183176;28;841;-72
2022/04/07 15:43:12;;;;;;;;;;;;;;;;;;4184105;28;1265;-71
2022/04/07 15:45:33;;;;;;;;;;;;;;;;;;4184335;28;1141;-71
2022/04/07 15:47:54;;;;;;;;;;;;;;;;;;4182366;28;979;-71
2022/04/07 15:50:14;;;;;;;;;;;;;;;;;;4186740;28;974;-72
2022/04/07 15:52:35;;;;;;;;;;;;;;;;;;4186887;28;963;-71
2022/04/07 15:54:56;;;;;;;;;;;;;;;;;;4185279;28;1902;-70
2022/04/07 15:57:16;;;;;;;;;;;;;;;;;;4186850;28;883;-70
2022/04/07 15:59:37;;;;;;;;;;;;;;;;;;4186742;28;1638;-71
2022/04/07 16:01:58;;;;;;;;;;;;;;;;;;4170827;28;1561;-70
2022/04/07 16:04:18;;;;;;;;;;;;;;;;;;4185359;28;1648;-70
2022/04/07 16:06:39;;;;;;;;;;;;;;;;;;4184878;28;1414;-70
2022/04/07 16:09:00;;;;;;;;;;;;;;;;;;4184663;28;1280;-70
2022/04/07 16:11:21;;;;;;;;;;;;;;;;;;4186472;28;1583;-70
2022/04/07 16:13:41;;;;;;;;;;;;;;;;;;4185617;28;1660;-69
2022/04/07 16:16:02;;;;;;;;;;;;;;;;;;4184633;28;1972;-70
2022/04/07 16:18:23;;;;;;;;;;;;;;;;;;4186966;28;817;-70
2022/04/07 16:20:45;;;;;;;;;;;;;;;;;;4187015;28;840;-70
2022/04/07 16:23:08;;;;;;;;;;;;;;;;;;4187000;28;948;-70
2022/04/07 16:25:28;;;;;;;;;;;;;;;;;;4186770;28;1039;-70